createdAt,value
2023-03-16T00:00:17.653Z,2.50
2023-03-16T00:02:44.482Z,2.33
2023-03-16T00:05:13.033Z,1.97
2023-03-16T00:07:42.256Z,1.90
2023-03-16T00:10:12.424Z,2.70
2023-03-16T00:12:39.656Z,2.07
2023-03-16T00:15:07.229Z,1.93
2023-03-16T00:17:34.805Z,2.00
2023-03-16T00:20:06.661Z,1.93
2023-03-16T00:22:33.571Z,1.83
2023-03-16T00:25:00.296Z,2.10
2023-03-16T00:27:29.551Z,2.00
2023-03-16T00:30:03.407Z,2.10
2023-03-16T00:32:33.611Z,1.90
2023-03-16T00:35:04.499Z,1.90
2023-03-16T00:37:33.019Z,1.70
2023-03-16T00:40:00.709Z,2.30
2023-03-16T00:42:59.303Z,2.00
2023-03-16T00:45:26.267Z,2.17
2023-03-16T00:47:54.246Z,2.17
2023-03-16T00:50:22.501Z,1.90
2023-03-16T00:52:49.240Z,2.23
2023-03-16T00:55:16.259Z,1.80
2023-03-16T00:57:42.935Z,1.70
2023-03-16T01:00:12.970Z,1.80
2023-03-16T01:02:40.045Z,2.20
2023-03-16T01:05:07.427Z,2.07
2023-03-16T01:07:36.351Z,2.27
2023-03-16T01:10:04.418Z,1.90
2023-03-16T01:12:31.304Z,2.40
2023-03-16T01:14:58.601Z,1.70
2023-03-16T01:17:26.842Z,1.83
2023-03-16T01:19:54.098Z,1.87
2023-03-16T01:22:21.589Z,1.90
2023-03-16T01:24:48.474Z,2.10
2023-03-16T01:27:15.628Z,1.80
2023-03-16T01:29:43.706Z,1.80
2023-03-16T01:32:12.131Z,1.77
2023-03-16T01:34:39.046Z,1.90
2023-03-16T01:37:06.466Z,1.70
2023-03-16T01:39:40.887Z,1.57
2023-03-16T01:42:09.115Z,1.60
2023-03-16T01:44:54.396Z,1.73
2023-03-16T01:47:23.252Z,1.87
2023-03-16T01:49:55.042Z,1.50
2023-03-16T01:52:28.157Z,1.37
2023-03-16T01:55:10.098Z,1.70
2023-03-16T01:57:40.583Z,1.80
2023-03-16T02:00:10.887Z,1.63
2023-03-16T02:02:55.670Z,2.07
2023-03-16T02:05:33.456Z,1.57
2023-03-16T02:08:01.849Z,1.70
2023-03-16T02:10:30.547Z,1.50
2023-03-16T02:12:58.786Z,1.30
2023-03-16T02:15:27.361Z,1.80
2023-03-16T02:17:54.473Z,2.00
2023-03-16T02:20:41.734Z,1.77
2023-03-16T02:23:18.406Z,2.13
2023-03-16T02:25:54.323Z,1.63
2023-03-16T02:28:58.667Z,1.43
2023-03-16T02:31:25.651Z,1.63
2023-03-16T02:33:54.866Z,1.63
2023-03-16T02:36:21.912Z,1.87
2023-03-16T02:38:48.710Z,1.63
2023-03-16T02:41:22.712Z,1.60
2023-03-16T02:44:00.113Z,1.53
2023-03-16T02:46:35.829Z,1.70
2023-03-16T02:49:16.383Z,1.80
2023-03-16T02:51:45.849Z,2.00
2023-03-16T02:54:12.846Z,1.40
2023-03-16T02:56:40.762Z,1.43
2023-03-16T02:59:09.063Z,1.60
2023-03-16T03:01:36.755Z,1.53
2023-03-16T03:04:04.759Z,1.20
2023-03-16T03:06:32.998Z,1.70
2023-03-16T03:09:02.174Z,1.30
2023-03-16T03:11:29.814Z,1.67
2023-03-16T03:13:56.669Z,1.67
2023-03-16T03:16:26.355Z,1.90
2023-03-16T03:18:54.905Z,1.70
2023-03-16T03:21:22.204Z,1.50
2023-03-16T03:23:48.932Z,1.87
2023-03-16T03:26:16.416Z,1.70
2023-03-16T03:28:44.840Z,1.90
2023-03-16T03:31:23.060Z,1.80
2023-03-16T03:33:51.241Z,1.70
2023-03-16T03:36:17.959Z,1.67
2023-03-16T03:38:45.988Z,1.90
2023-03-16T03:41:13.502Z,1.43
2023-03-16T03:43:41.052Z,1.67
2023-03-16T03:46:13.651Z,1.70
2023-03-16T03:48:40.507Z,2.00
2023-03-16T03:51:07.408Z,1.90
2023-03-16T03:53:43.306Z,1.50
2023-03-16T03:56:26.178Z,1.87
2023-03-16T03:58:53.460Z,1.90
2023-03-16T04:01:31.897Z,1.63
2023-03-16T04:03:58.866Z,2.10
2023-03-16T04:06:26.115Z,1.73
2023-03-16T04:08:54.518Z,1.90
2023-03-16T04:11:25.260Z,2.00
2023-03-16T04:13:53.474Z,1.60
2023-03-16T04:16:21.084Z,1.90
2023-03-16T04:18:51.818Z,1.70
2023-03-16T04:21:19.231Z,1.70
2023-03-16T04:23:48.849Z,1.50
2023-03-16T04:26:16.585Z,1.90
2023-03-16T04:28:45.304Z,1.90
2023-03-16T04:31:15.590Z,2.57
2023-03-16T04:33:46.075Z,1.73
2023-03-16T04:36:13.178Z,1.90
2023-03-16T04:38:42.338Z,1.63
2023-03-16T04:41:11.447Z,1.83
2023-03-16T04:43:44.817Z,1.70
2023-03-16T04:46:19.659Z,1.83
2023-03-16T04:48:46.539Z,2.47
2023-03-16T04:51:13.543Z,2.00
2023-03-16T04:53:47.177Z,1.53
2023-03-16T04:56:21.674Z,1.53
2023-03-16T04:58:56.899Z,1.60
2023-03-16T05:01:25.500Z,1.80
2023-03-16T05:03:59.537Z,1.50
2023-03-16T05:06:27.647Z,2.20
2023-03-16T05:08:54.679Z,1.83
2023-03-16T05:11:21.585Z,1.90
2023-03-16T05:13:55.850Z,1.77
2023-03-16T05:16:23.359Z,1.50
2023-03-16T05:18:52.943Z,1.80
2023-03-16T05:21:20.248Z,1.93
2023-03-16T05:23:59.767Z,1.53
2023-03-16T05:26:26.813Z,1.83
2023-03-16T05:28:54.271Z,1.70
2023-03-16T05:31:27.504Z,1.50
2023-03-16T05:33:58.278Z,1.80
2023-03-16T05:36:25.813Z,1.40
2023-03-16T05:38:56.693Z,2.00
2023-03-16T05:41:31.341Z,1.93
2023-03-16T05:44:24.886Z,1.97
2023-03-16T05:47:23.685Z,1.80
2023-03-16T05:49:57.423Z,2.13
2023-03-16T05:52:33.875Z,1.80
2023-03-16T05:55:06.770Z,1.80
2023-03-16T05:57:34.269Z,1.50
2023-03-16T06:00:02.252Z,1.73
2023-03-16T06:02:39.050Z,1.70
2023-03-16T06:05:07.473Z,1.53
2023-03-16T06:07:36.555Z,1.60
2023-03-16T06:10:05.182Z,1.40
2023-03-16T06:12:34.559Z,1.73
2023-03-16T06:15:02.419Z,2.00
2023-03-16T06:17:30.434Z,1.50
2023-03-16T06:19:57.898Z,2.07
2023-03-16T06:22:25.414Z,1.87
2023-03-16T06:24:52.587Z,1.63
2023-03-16T06:27:20.590Z,1.63
2023-03-16T06:30:07.132Z,1.33
2023-03-16T06:32:35.569Z,1.77
2023-03-16T06:35:03.820Z,1.50
2023-03-16T06:37:32.001Z,1.60
2023-03-16T06:40:02.282Z,1.80
2023-03-16T06:42:29.171Z,1.60
2023-03-16T06:44:57.533Z,1.60
2023-03-16T06:47:24.560Z,1.23
2023-03-16T06:49:52.082Z,1.47
2023-03-16T06:52:22.364Z,2.47
2023-03-16T06:54:54.077Z,1.53
2023-03-16T06:57:21.445Z,1.33
2023-03-16T06:59:50.062Z,1.60
2023-03-16T07:02:17.248Z,1.60
2023-03-16T07:04:44.203Z,1.57
2023-03-16T07:07:11.810Z,1.37
2023-03-16T07:09:41.552Z,1.40
2023-03-16T07:12:09.752Z,1.40
2023-03-16T07:14:37.619Z,1.60
2023-03-16T07:17:05.209Z,1.60
2023-03-16T07:19:32.314Z,1.47
2023-03-16T07:22:02.968Z,1.60
2023-03-16T07:24:33.338Z,1.30
2023-03-16T07:27:00.112Z,1.27
2023-03-16T07:29:30.513Z,1.30
2023-03-16T07:31:57.357Z,1.33
2023-03-16T07:34:32.025Z,1.40
2023-03-16T07:36:59.346Z,1.20
2023-03-16T07:39:29.888Z,1.20
2023-03-16T07:42:04.409Z,1.30
2023-03-16T07:44:46.840Z,1.30
2023-03-16T07:47:13.747Z,1.50
2023-03-16T07:49:42.784Z,2.07
2023-03-16T07:52:10.517Z,1.20
2023-03-16T07:54:40.929Z,1.50
2023-03-16T07:57:09.795Z,1.37
2023-03-16T07:59:41.677Z,1.23
2023-03-16T08:02:16.594Z,1.40
2023-03-16T08:04:44.764Z,1.20
2023-03-16T08:07:15.097Z,1.30
2023-03-16T08:10:08.266Z,1.50
2023-03-16T08:12:43.534Z,1.27
2023-03-16T08:15:11.787Z,1.07
2023-03-16T08:17:41.859Z,1.10
2023-03-16T08:20:15.267Z,1.33
2023-03-16T08:22:46.410Z,1.17
2023-03-16T08:25:19.853Z,1.30
2023-03-16T08:27:55.388Z,1.30
2023-03-16T08:30:23.057Z,1.17
2023-03-16T08:33:03.539Z,0.93
2023-03-16T08:35:30.518Z,1.00
2023-03-16T08:37:57.629Z,1.20
2023-03-16T08:40:25.540Z,1.10
2023-03-16T08:42:52.602Z,1.10
2023-03-16T08:45:20.092Z,1.20
2023-03-16T08:47:47.546Z,0.90
2023-03-16T08:50:15.745Z,1.07
2023-03-16T08:52:42.935Z,1.47
2023-03-16T08:55:11.061Z,1.03
2023-03-16T08:57:39.397Z,1.20
2023-03-16T09:00:13.860Z,1.20
2023-03-16T09:02:44.846Z,1.23
2023-03-16T09:05:18.415Z,1.20
2023-03-16T09:07:47.126Z,1.20
2023-03-16T09:10:16.565Z,1.20
2023-03-16T09:12:43.881Z,1.00
2023-03-16T09:15:12.437Z,1.10
2023-03-16T09:17:41.817Z,1.27
2023-03-16T09:20:21.802Z,1.10
2023-03-16T09:22:49.477Z,1.30
2023-03-16T09:25:16.432Z,1.10
2023-03-16T09:27:43.445Z,1.20
2023-03-16T09:30:13.272Z,1.30
2023-03-16T09:32:40.726Z,1.80
2023-03-16T09:35:07.954Z,1.03
2023-03-16T09:37:45.056Z,1.17
2023-03-16T09:40:23.848Z,1.20
2023-03-16T09:43:17.097Z,0.87
2023-03-16T09:46:02.228Z,1.20
2023-03-16T09:48:33.976Z,1.50
2023-03-16T09:51:02.535Z,1.20
2023-03-16T09:53:35.396Z,1.40
2023-03-16T09:56:06.894Z,1.23
2023-03-16T09:58:34.134Z,1.03
2023-03-16T10:01:13.417Z,0.93
2023-03-16T10:03:52.433Z,1.10
2023-03-16T10:06:19.438Z,1.20
2023-03-16T10:08:52.112Z,1.23
2023-03-16T10:11:29.446Z,0.97
2023-03-16T10:14:04.769Z,1.20
2023-03-16T10:16:40.258Z,1.00
2023-03-16T10:19:20.725Z,1.60
2023-03-16T10:21:49.583Z,0.70
2023-03-16T10:24:52.217Z,0.90
2023-03-16T10:27:22.769Z,1.10
2023-03-16T10:29:49.570Z,2.10
2023-03-16T10:32:18.934Z,1.00
2023-03-16T10:34:53.222Z,0.97
2023-03-16T10:37:20.417Z,1.10
2023-03-16T10:39:49.095Z,1.00
2023-03-16T10:42:17.800Z,1.10
2023-03-16T10:44:45.192Z,0.80
2023-03-16T10:47:32.708Z,0.80
2023-03-16T10:50:00.705Z,0.87
2023-03-16T10:52:37.971Z,0.60
2023-03-16T10:55:18.025Z,0.87
2023-03-16T10:57:53.694Z,0.90
2023-03-16T11:00:28.934Z,0.60
2023-03-16T11:02:56.950Z,0.70
2023-03-16T11:05:23.974Z,0.70
2023-03-16T11:07:57.776Z,1.20
2023-03-16T11:10:46.149Z,0.67
2023-03-16T11:13:21.029Z,1.10
2023-03-16T11:15:54.003Z,0.97
2023-03-16T11:18:33.204Z,0.90
2023-03-16T11:21:07.098Z,0.97
2023-03-16T11:23:35.641Z,1.10
2023-03-16T11:26:06.517Z,1.00
2023-03-16T11:28:37.655Z,0.90
2023-03-16T11:31:08.419Z,1.00
2023-03-16T11:33:35.437Z,0.80
2023-03-16T11:36:27.756Z,0.90
2023-03-16T11:39:19.264Z,0.90
2023-03-16T11:42:07.888Z,0.97
2023-03-16T11:45:01.653Z,1.00
2023-03-16T11:47:38.398Z,0.90
2023-03-16T11:50:18.505Z,1.07
2023-03-16T11:53:11.552Z,1.10
2023-03-16T11:55:59.688Z,0.80
2023-03-16T11:58:44.986Z,0.80
2023-03-16T12:01:23.901Z,0.93
2023-03-16T12:04:02.473Z,1.00
2023-03-16T12:06:33.734Z,0.80
2023-03-16T12:09:58.892Z,0.80
2023-03-16T12:12:34.428Z,0.87
2023-03-16T12:15:24.510Z,1.10
2023-03-16T12:17:55.619Z,1.20
2023-03-16T12:20:26.972Z,0.93
2023-03-16T12:22:59.570Z,2.30
2023-03-16T12:25:32.061Z,1.40
2023-03-16T12:28:02.575Z,1.67
2023-03-16T12:31:14.340Z,3.10
2023-03-16T12:33:59.899Z,0.90
2023-03-16T12:36:42.970Z,0.80
2023-03-16T12:39:20.927Z,0.90
2023-03-16T12:41:57.332Z,0.83
2023-03-16T12:44:55.424Z,1.00
2023-03-16T12:47:38.119Z,1.00
2023-03-16T12:50:11.384Z,0.80
2023-03-16T12:52:53.873Z,1.40
2023-03-16T12:55:24.684Z,0.90
2023-03-16T12:57:51.964Z,1.00
2023-03-16T13:00:19.837Z,2.17
2023-03-16T13:02:56.124Z,1.00
2023-03-16T13:05:33.074Z,1.10
2023-03-16T13:08:12.216Z,1.00
2023-03-16T13:10:39.565Z,1.40
2023-03-16T13:13:18.398Z,0.93
2023-03-16T13:15:49.645Z,1.13
2023-03-16T13:18:17.109Z,1.20
2023-03-16T13:20:56.532Z,0.97
2023-03-16T13:23:49.707Z,0.97
2023-03-16T13:26:18.764Z,1.10
2023-03-16T13:28:51.150Z,1.03
2023-03-16T13:31:47.948Z,0.93
2023-03-16T13:34:33.947Z,0.80
2023-03-16T13:37:04.341Z,1.10
2023-03-16T13:39:32.830Z,0.80
2023-03-16T13:42:09.818Z,1.00
2023-03-16T13:44:41.395Z,1.13
2023-03-16T13:47:12.801Z,1.00
2023-03-16T13:49:47.400Z,0.77
2023-03-16T13:52:32.355Z,1.50
2023-03-16T13:55:01.137Z,0.80
2023-03-16T13:57:36.889Z,0.83
2023-03-16T14:00:18.278Z,0.90
2023-03-16T14:02:47.336Z,0.73
2023-03-16T14:05:29.369Z,0.60
2023-03-16T14:07:57.358Z,0.97
2023-03-16T14:10:27.965Z,0.80
2023-03-16T14:12:57.324Z,0.83
2023-03-16T14:15:28.343Z,1.27
2023-03-16T14:18:12.004Z,1.67
2023-03-16T14:20:41.601Z,1.40
2023-03-16T14:23:24.939Z,1.33
2023-03-16T14:25:53.554Z,0.80
2023-03-16T14:28:27.265Z,1.00
2023-03-16T14:31:02.224Z,0.93
2023-03-16T14:33:34.547Z,1.00
2023-03-16T14:36:18.008Z,0.90
2023-03-16T14:38:48.917Z,0.77
2023-03-16T14:41:27.522Z,0.70
2023-03-16T14:43:59.648Z,0.90
2023-03-16T14:46:29.570Z,0.80
2023-03-16T14:49:03.692Z,1.20
2023-03-16T14:51:32.065Z,0.83
2023-03-16T14:53:58.793Z,1.30
2023-03-16T14:56:34.284Z,0.80
2023-03-16T14:59:01.284Z,0.80
2023-03-16T15:01:28.194Z,1.00
2023-03-16T15:03:55.275Z,0.83
2023-03-16T15:06:23.121Z,0.90
2023-03-16T15:08:53.920Z,0.87
2023-03-16T15:11:21.999Z,1.00
2023-03-16T15:13:49.190Z,0.97
2023-03-16T15:16:16.359Z,0.93
2023-03-16T15:18:43.350Z,0.70
2023-03-16T15:21:20.933Z,0.93
2023-03-16T15:23:48.268Z,1.17
2023-03-16T15:26:16.725Z,0.80
2023-03-16T15:28:44.054Z,1.07
2023-03-16T15:31:14.504Z,0.70
2023-03-16T15:33:42.180Z,0.90
2023-03-16T15:36:15.738Z,1.00
2023-03-16T15:38:46.181Z,0.90
2023-03-16T15:41:13.752Z,0.83
2023-03-16T15:43:40.755Z,0.70
2023-03-16T15:46:07.899Z,1.03
2023-03-16T15:48:34.817Z,0.93
2023-03-16T15:51:08.703Z,0.70
2023-03-16T15:53:42.412Z,0.60
2023-03-16T15:56:12.235Z,0.80
2023-03-16T15:58:41.872Z,1.10
2023-03-16T16:01:09.815Z,0.80
2023-03-16T16:03:36.591Z,0.73
2023-03-16T16:06:03.836Z,1.30
2023-03-16T16:08:30.906Z,0.70
2023-03-16T16:10:57.813Z,1.30
2023-03-16T16:13:43.208Z,0.90
2023-03-16T16:16:16.991Z,1.10
2023-03-16T16:18:43.940Z,0.60
2023-03-16T16:21:19.377Z,1.10
2023-03-16T16:23:46.638Z,1.30
2023-03-16T16:26:48.930Z,0.80
2023-03-16T16:29:24.314Z,1.13
2023-03-16T16:31:52.023Z,0.83
2023-03-16T16:34:27.336Z,0.90
2023-03-16T16:36:55.368Z,0.93
2023-03-16T16:39:22.744Z,0.80
2023-03-16T16:41:55.058Z,0.73
2023-03-16T16:44:27.836Z,0.97
2023-03-16T16:46:55.014Z,0.80
2023-03-16T16:49:28.276Z,1.10
2023-03-16T16:51:55.543Z,1.00
2023-03-16T16:54:25.023Z,1.00
2023-03-16T16:56:56.487Z,0.80
2023-03-16T16:59:25.561Z,0.73
2023-03-16T17:01:54.175Z,1.00
2023-03-16T17:04:23.841Z,1.20
2023-03-16T17:06:55.449Z,1.20
2023-03-16T17:09:23.577Z,1.03
2023-03-16T17:11:51.625Z,1.40
2023-03-16T17:14:20.486Z,1.37
2023-03-16T17:16:48.590Z,1.20
2023-03-16T17:19:21.708Z,1.23
2023-03-16T17:21:49.067Z,1.60
2023-03-16T17:24:16.954Z,1.73
2023-03-16T17:26:48.063Z,1.30
2023-03-16T17:29:25.743Z,1.10
2023-03-16T17:31:53.008Z,0.80
2023-03-16T17:34:24.888Z,1.30
2023-03-16T17:36:52.632Z,0.93
2023-03-16T17:39:21.216Z,1.10
2023-03-16T17:42:16.073Z,1.33
2023-03-16T17:44:45.704Z,1.50
2023-03-16T17:47:27.759Z,1.50
2023-03-16T17:49:55.118Z,1.70
2023-03-16T17:52:24.060Z,1.57
2023-03-16T17:54:52.223Z,1.73
2023-03-16T17:57:45.124Z,1.30
2023-03-16T18:00:30.834Z,1.13
2023-03-16T18:03:01.461Z,1.30
2023-03-16T18:05:32.861Z,1.60
2023-03-16T18:08:36.176Z,1.60
2023-03-16T18:11:12.576Z,1.20
2023-03-16T18:13:44.491Z,1.47
2023-03-16T18:16:21.084Z,1.60
2023-03-16T18:18:50.093Z,1.80
2023-03-16T18:21:25.745Z,1.90
2023-03-16T18:23:54.662Z,2.17
2023-03-16T18:26:22.205Z,4.20
2023-03-16T18:28:48.998Z,2.17
2023-03-16T18:31:27.862Z,1.73
2023-03-16T18:33:57.158Z,1.60
2023-03-16T18:36:33.083Z,1.17
2023-03-16T18:39:01.846Z,1.27
2023-03-16T18:41:30.714Z,1.20
2023-03-16T18:44:02.070Z,1.37
2023-03-16T18:46:31.447Z,1.40
2023-03-16T18:49:00.444Z,1.20
2023-03-16T18:51:27.630Z,1.33
2023-03-16T18:53:55.560Z,1.20
2023-03-16T18:56:28.039Z,1.50
2023-03-16T18:58:56.311Z,1.27
2023-03-16T19:01:28.627Z,1.60
2023-03-16T19:03:58.027Z,1.47
2023-03-16T19:06:30.592Z,1.50
2023-03-16T19:09:13.567Z,1.40
2023-03-16T19:11:44.436Z,1.10
2023-03-16T19:14:24.856Z,1.60
2023-03-16T19:16:52.452Z,1.63
2023-03-16T19:19:23.359Z,1.27
2023-03-16T19:21:52.738Z,1.30
2023-03-16T19:24:28.321Z,1.30
2023-03-16T19:26:55.481Z,1.60
2023-03-16T19:29:29.331Z,1.33
2023-03-16T19:31:57.221Z,1.30
2023-03-16T19:34:24.166Z,1.40
2023-03-16T19:36:52.454Z,1.47
2023-03-16T19:39:19.649Z,1.37
2023-03-16T19:41:50.354Z,1.73
2023-03-16T19:44:20.682Z,1.37
2023-03-16T19:46:52.753Z,1.93
2023-03-16T19:49:23.050Z,1.87
2023-03-16T19:51:51.672Z,1.70
2023-03-16T19:54:28.947Z,2.07
2023-03-16T19:56:59.209Z,1.87
2023-03-16T19:59:31.948Z,1.80
2023-03-16T20:01:59.240Z,1.53
2023-03-16T20:04:28.043Z,1.70
2023-03-16T20:06:55.415Z,1.50
2023-03-16T20:09:25.232Z,1.60
2023-03-16T20:11:53.464Z,1.77
2023-03-16T20:14:32.696Z,1.67
2023-03-16T20:16:59.875Z,1.90
2023-03-16T20:19:26.869Z,1.70
2023-03-16T20:21:54.094Z,1.80
2023-03-16T20:24:22.440Z,1.57
2023-03-16T20:26:51.564Z,1.77
2023-03-16T20:29:18.343Z,1.43
2023-03-16T20:31:45.958Z,1.20
2023-03-16T20:34:22.574Z,1.63
2023-03-16T20:36:49.956Z,1.60
2023-03-16T20:39:17.016Z,1.70
2023-03-16T20:41:46.888Z,1.30
2023-03-16T20:44:21.356Z,1.33
2023-03-16T20:46:48.209Z,1.73
2023-03-16T20:49:29.587Z,1.43
2023-03-16T20:51:57.157Z,1.63
2023-03-16T20:54:24.271Z,1.60
2023-03-16T20:56:51.731Z,1.40
2023-03-16T20:59:25.880Z,1.50
2023-03-16T21:01:56.569Z,1.43
2023-03-16T21:04:28.878Z,1.67
2023-03-16T21:07:03.215Z,1.10
2023-03-16T21:09:34.560Z,1.37
2023-03-16T21:12:01.700Z,1.33
2023-03-16T21:14:28.568Z,1.33
2023-03-16T21:19:38.814Z,1.30
2023-03-16T21:22:21.483Z,1.40
2023-03-16T21:24:48.613Z,1.30
2023-03-16T21:27:23.358Z,1.40
2023-03-16T21:29:50.718Z,1.40
2023-03-16T21:32:23.339Z,1.47
2023-03-16T21:34:50.595Z,1.20
2023-03-16T21:37:19.690Z,1.17
2023-03-16T21:39:48.284Z,1.07
2023-03-16T21:42:17.429Z,1.20
2023-03-16T21:44:44.734Z,1.20
2023-03-16T21:47:34.334Z,1.20
2023-03-16T21:50:06.171Z,1.47
2023-03-16T21:52:39.060Z,1.33
2023-03-16T21:55:06.837Z,1.33
2023-03-16T21:57:33.873Z,1.20
2023-03-16T22:00:00.913Z,1.20
2023-03-16T22:02:33.364Z,1.10
2023-03-16T22:05:00.444Z,1.10
2023-03-16T22:07:27.223Z,1.30
2023-03-16T22:09:54.284Z,1.27
2023-03-16T22:12:21.088Z,1.20
2023-03-16T22:14:48.581Z,1.10
2023-03-16T22:17:22.421Z,1.00
2023-03-16T22:19:49.233Z,1.10
2023-03-16T22:22:16.980Z,1.10
2023-03-16T22:24:43.834Z,1.00
2023-03-16T22:27:17.198Z,1.00
2023-03-16T22:29:44.905Z,1.00
2023-03-16T22:32:16.725Z,1.10
2023-03-16T22:34:47.328Z,0.90
2023-03-16T22:37:29.151Z,0.93
2023-03-16T22:39:58.584Z,0.93
2023-03-16T22:42:31.892Z,1.07
2023-03-16T22:44:59.201Z,1.20
2023-03-16T22:47:28.527Z,1.00
2023-03-16T22:49:55.501Z,1.00
2023-03-16T22:52:26.114Z,1.10
2023-03-16T22:54:52.984Z,1.00
2023-03-16T22:57:20.139Z,1.00
2023-03-16T22:59:47.621Z,1.07
2023-03-16T23:02:15.298Z,1.00
2023-03-16T23:04:42.587Z,1.10
2023-03-16T23:07:12.340Z,1.30
2023-03-16T23:09:39.567Z,1.00
2023-03-16T23:12:14.136Z,1.10
2023-03-16T23:14:41.594Z,1.10
2023-03-16T23:17:19.701Z,1.27
2023-03-16T23:19:48.255Z,1.10
2023-03-16T23:22:16.021Z,0.97
2023-03-16T23:24:43.433Z,1.00
2023-03-16T23:27:21.771Z,1.10
2023-03-16T23:29:48.828Z,1.10
2023-03-16T23:32:17.244Z,1.10
2023-03-16T23:34:44.638Z,0.87
2023-03-16T23:37:11.774Z,1.10
2023-03-16T23:39:38.551Z,1.47
2023-03-16T23:42:05.668Z,1.20
2023-03-16T23:44:32.892Z,1.10
2023-03-16T23:47:00.618Z,1.20
2023-03-16T23:49:30.926Z,1.20
2023-03-16T23:51:58.592Z,1.17
2023-03-16T23:54:28.702Z,1.17
2023-03-16T23:56:55.682Z,0.90
2023-03-16T23:59:23.589Z,1.10
